createdAt,value
2018-07-26T00:00:01.489Z,22.10
2018-07-26T00:02:30.247Z,22.09
2018-07-26T00:04:59.315Z,22.08
2018-07-26T00:07:28.107Z,22.04
2018-07-26T00:09:56.830Z,22.05
2018-07-26T00:12:25.881Z,22.04
2018-07-26T00:14:54.703Z,22.04
2018-07-26T00:17:23.746Z,22.01
2018-07-26T00:19:53.102Z,22.03
2018-07-26T00:22:21.800Z,22.03
2018-07-26T00:24:53.717Z,22.03
2018-07-26T00:27:22.447Z,22.05
2018-07-26T00:29:51.539Z,22.05
2018-07-26T00:32:20.307Z,22.07
2018-07-26T00:34:49.105Z,22.07
2018-07-26T00:37:18.161Z,22.09
2018-07-26T00:39:47.704Z,22.09
2018-07-26T00:42:16.892Z,22.07
2018-07-26T00:44:45.987Z,22.01
2018-07-26T00:47:15.348Z,21.98
2018-07-26T00:49:44.721Z,21.95
2018-07-26T00:52:13.933Z,21.89
2018-07-26T00:54:42.704Z,21.85
2018-07-26T00:57:12.279Z,21.81
2018-07-26T00:59:41.265Z,21.75
2018-07-26T01:02:10.026Z,21.73
2018-07-26T01:04:39.452Z,21.72
2018-07-26T01:07:08.276Z,21.71
2018-07-26T01:09:37.931Z,21.65
2018-07-26T01:12:06.875Z,21.64
2018-07-26T01:14:36.744Z,21.62
2018-07-26T01:17:06.983Z,21.62
2018-07-26T01:19:36.943Z,21.64
2018-07-26T01:22:07.633Z,21.63
2018-07-26T01:24:36.682Z,21.64
2018-07-26T01:27:05.465Z,21.63
2018-07-26T01:29:34.466Z,21.60
2018-07-26T01:32:03.823Z,21.56
2018-07-26T01:34:32.590Z,21.48
2018-07-26T01:37:01.627Z,21.46
2018-07-26T01:39:30.343Z,21.44
2018-07-26T01:42:00.055Z,21.41
2018-07-26T01:44:29.311Z,21.37
2018-07-26T01:46:58.722Z,21.33
2018-07-26T01:49:27.665Z,21.33
2018-07-26T01:51:56.393Z,21.32
2018-07-26T01:54:25.466Z,21.32
2018-07-26T01:56:54.467Z,21.32
2018-07-26T01:59:23.881Z,21.27
2018-07-26T02:01:52.874Z,21.27
2018-07-26T02:04:22.288Z,21.25
2018-07-26T02:06:51.675Z,21.23
2018-07-26T02:09:20.749Z,21.22
2018-07-26T02:11:49.757Z,21.22
2018-07-26T02:14:24.165Z,21.19
2018-07-26T02:16:53.139Z,21.19
2018-07-26T02:19:22.191Z,21.17
2018-07-26T02:21:50.954Z,21.18
2018-07-26T02:24:20.060Z,21.21
2018-07-26T02:26:49.118Z,21.19
2018-07-26T02:29:18.206Z,21.19
2018-07-26T02:31:47.253Z,21.15
2018-07-26T02:34:16.753Z,21.14
2018-07-26T02:36:45.949Z,21.16
2018-07-26T02:39:14.699Z,21.18
2018-07-26T02:41:43.476Z,21.19
2018-07-26T02:44:12.788Z,21.16
2018-07-26T02:46:41.772Z,21.15
2018-07-26T02:49:10.503Z,21.15
2018-07-26T02:51:40.025Z,21.13
2018-07-26T02:54:09.055Z,21.13
2018-07-26T02:56:37.802Z,21.13
2018-07-26T02:59:06.564Z,21.10
2018-07-26T03:01:35.683Z,21.08
2018-07-26T03:04:04.832Z,21.06
2018-07-26T03:06:33.789Z,21.04
2018-07-26T03:09:02.878Z,21.02
2018-07-26T03:11:31.986Z,21.04
2018-07-26T03:14:01.280Z,21.05
2018-07-26T03:16:30.360Z,21.06
2018-07-26T03:18:59.108Z,21.05
2018-07-26T03:21:28.112Z,21.00
2018-07-26T03:23:56.842Z,20.97
2018-07-26T03:26:26.296Z,20.95
2018-07-26T03:28:55.316Z,20.95
2018-07-26T03:31:24.397Z,20.94
2018-07-26T03:33:53.148Z,20.94
2018-07-26T03:36:22.151Z,20.94
2018-07-26T03:38:51.290Z,20.94
2018-07-26T03:41:20.056Z,20.94
2018-07-26T03:43:49.073Z,20.93
2018-07-26T03:46:17.857Z,20.93
2018-07-26T03:48:46.850Z,20.93
2018-07-26T03:51:16.250Z,20.91
2018-07-26T03:53:45.564Z,20.90
2018-07-26T03:56:14.326Z,20.88
2018-07-26T03:58:43.322Z,20.86
2018-07-26T04:01:12.314Z,20.82
2018-07-26T04:03:41.902Z,20.82
2018-07-26T04:06:11.553Z,20.81
2018-07-26T04:08:40.387Z,20.78
2018-07-26T04:11:09.422Z,20.78
2018-07-26T04:13:38.745Z,20.79
2018-07-26T04:16:07.853Z,20.81
2018-07-26T04:18:37.271Z,20.84
2018-07-26T04:21:07.632Z,20.87
2018-07-26T04:26:04.587Z,20.93
2018-07-26T04:28:33.364Z,20.96
2018-07-26T04:31:02.099Z,20.99
2018-07-26T04:33:30.836Z,20.99
2018-07-26T04:35:59.904Z,21.00
2018-07-26T04:38:28.663Z,21.02
2018-07-26T04:40:57.753Z,21.04
2018-07-26T04:43:26.504Z,21.07
2018-07-26T04:45:55.631Z,21.10
2018-07-26T04:48:24.786Z,21.11
2018-07-26T04:50:53.841Z,21.09
2018-07-26T04:53:22.566Z,21.10
2018-07-26T04:55:52.807Z,21.13
2018-07-26T04:58:21.604Z,21.15
2018-07-26T05:00:50.338Z,21.19
2018-07-26T05:03:19.087Z,21.17
2018-07-26T05:05:48.141Z,21.20
2018-07-26T05:08:16.928Z,21.22
2018-07-26T05:10:45.736Z,21.26
2018-07-26T05:13:14.770Z,21.29
2018-07-26T05:15:43.829Z,21.34
2018-07-26T05:18:13.057Z,21.40
2018-07-26T05:20:42.938Z,21.46
2018-07-26T05:23:12.035Z,21.50
2018-07-26T05:25:41.280Z,21.55
2018-07-26T05:28:10.073Z,21.61
2018-07-26T05:30:39.258Z,21.68
2018-07-26T05:33:08.009Z,21.73
2018-07-26T05:35:37.058Z,21.82
2018-07-26T05:38:06.147Z,21.89
2018-07-26T05:40:35.348Z,21.95
2018-07-26T05:43:04.284Z,22.02
2018-07-26T05:45:33.614Z,22.08
2018-07-26T05:48:02.407Z,22.15
2018-07-26T05:50:31.536Z,22.27
2018-07-26T05:53:00.331Z,22.36
2018-07-26T05:55:29.708Z,22.44
2018-07-26T05:57:59.107Z,22.52
2018-07-26T06:00:28.272Z,22.57
2018-07-26T06:02:57.340Z,22.65
2018-07-26T06:05:26.111Z,22.78
2018-07-26T06:07:55.657Z,22.89
2018-07-26T06:10:24.688Z,22.97
2018-07-26T06:12:53.503Z,23.06
2018-07-26T06:15:22.321Z,23.18
2018-07-26T06:17:51.256Z,23.32
2018-07-26T06:20:20.438Z,23.42
2018-07-26T06:22:50.567Z,23.57
2018-07-26T06:25:19.994Z,23.67
2018-07-26T06:27:48.793Z,23.84
2018-07-26T06:30:17.534Z,23.95
2018-07-26T06:32:47.329Z,24.10
2018-07-26T06:35:16.120Z,24.22
2018-07-26T06:37:44.865Z,24.36
2018-07-26T06:40:14.605Z,24.51
2018-07-26T06:42:43.674Z,24.67
2018-07-26T06:45:12.429Z,24.82
2018-07-26T06:47:41.535Z,24.96
2018-07-26T06:50:12.092Z,25.13
2018-07-26T06:52:41.421Z,25.26
2018-07-26T06:55:10.619Z,25.43
2018-07-26T06:57:40.286Z,25.61
2018-07-26T07:00:10.453Z,25.80
2018-07-26T07:02:40.282Z,26.01
2018-07-26T07:05:09.557Z,26.19
2018-07-26T07:07:38.916Z,26.38
2018-07-26T07:10:08.374Z,26.53
2018-07-26T07:12:37.530Z,26.66
2018-07-26T07:15:06.268Z,26.77
2018-07-26T07:17:35.059Z,26.89
2018-07-26T07:20:04.113Z,27.00
2018-07-26T07:22:33.103Z,27.14
2018-07-26T07:25:02.188Z,27.28
2018-07-26T07:27:31.163Z,27.44
2018-07-26T07:29:59.965Z,27.66
2018-07-26T07:32:29.362Z,27.80
2018-07-26T07:34:58.663Z,27.93
2018-07-26T07:37:27.500Z,28.08
2018-07-26T07:39:56.242Z,28.26
2018-07-26T07:42:25.440Z,28.44
2018-07-26T07:44:54.223Z,28.57
2018-07-26T07:47:23.093Z,28.68
2018-07-26T07:49:52.099Z,28.83
2018-07-26T07:52:21.438Z,29.02
2018-07-26T07:54:50.314Z,29.17
2018-07-26T07:57:19.144Z,29.19
2018-07-26T07:59:47.939Z,29.18
2018-07-26T08:02:17.032Z,29.11
2018-07-26T08:04:46.034Z,29.10
2018-07-26T08:07:15.067Z,29.11
2018-07-26T08:09:43.809Z,29.10
2018-07-26T08:12:12.932Z,29.12
2018-07-26T08:14:41.674Z,29.11
2018-07-26T08:17:10.397Z,29.14
2018-07-26T08:19:39.471Z,29.30
2018-07-26T08:22:08.222Z,29.42
2018-07-26T08:24:37.441Z,29.50
2018-07-26T08:27:06.889Z,29.68
2018-07-26T08:29:35.654Z,29.84
2018-07-26T08:32:05.299Z,30.00
2018-07-26T08:34:34.723Z,30.13
2018-07-26T08:37:03.784Z,30.27
2018-07-26T08:39:32.542Z,30.44
2018-07-26T08:42:01.355Z,30.57
2018-07-26T08:44:30.343Z,30.68
2018-07-26T08:46:59.769Z,30.85
2018-07-26T08:49:29.052Z,31.05
2018-07-26T08:51:58.005Z,31.11
2018-07-26T08:54:28.702Z,31.22
2018-07-26T08:56:58.422Z,31.36
2018-07-26T08:59:28.493Z,31.45
2018-07-26T09:01:57.597Z,31.59
2018-07-26T09:04:27.962Z,31.71
2018-07-26T09:06:57.374Z,31.79
2018-07-26T09:09:26.090Z,31.90
2018-07-26T09:11:56.350Z,32.05
2018-07-26T09:14:26.074Z,32.18
2018-07-26T09:16:55.506Z,32.34
2018-07-26T09:19:24.799Z,32.54
2018-07-26T09:21:53.919Z,32.84
2018-07-26T09:24:22.734Z,33.03
2018-07-26T09:26:51.977Z,33.22
2018-07-26T09:29:21.330Z,33.30
2018-07-26T09:31:50.566Z,33.43
2018-07-26T09:34:20.121Z,33.63
2018-07-26T09:36:48.986Z,33.82
2018-07-26T09:39:17.786Z,34.03
2018-07-26T09:41:46.577Z,34.15
2018-07-26T09:44:15.575Z,34.30
2018-07-26T09:46:44.569Z,34.49
2018-07-26T09:49:13.402Z,34.70
2018-07-26T09:51:43.117Z,34.88
2018-07-26T09:54:12.118Z,35.01
2018-07-26T09:56:40.934Z,35.10
2018-07-26T09:59:09.945Z,35.27
2018-07-26T10:01:40.304Z,35.32
2018-07-26T10:04:09.734Z,35.34
2018-07-26T10:06:40.718Z,35.42
2018-07-26T10:09:23.512Z,35.60
2018-07-26T10:14:13.221Z,35.53
2018-07-26T10:16:42.184Z,36.04
2018-07-26T10:19:11.251Z,36.33
2018-07-26T10:21:40.212Z,36.29
2018-07-26T10:24:10.333Z,36.42
2018-07-26T10:26:40.177Z,36.55
2018-07-26T10:29:10.779Z,36.70
2018-07-26T10:31:39.567Z,36.76
2018-07-26T10:34:08.609Z,36.96
2018-07-26T10:36:38.144Z,37.21
2018-07-26T10:39:08.891Z,37.44
2018-07-26T10:41:37.639Z,37.63
2018-07-26T10:44:07.155Z,37.75
2018-07-26T10:46:36.519Z,37.78
2018-07-26T10:49:05.980Z,37.68
2018-07-26T10:51:35.362Z,37.64
2018-07-26T10:54:04.123Z,37.78
2018-07-26T10:56:33.047Z,38.04
2018-07-26T10:59:06.786Z,38.20
2018-07-26T11:01:36.520Z,38.37
2018-07-26T11:04:05.301Z,38.28
2018-07-26T11:06:35.027Z,38.24
2018-07-26T11:09:04.403Z,38.30
2018-07-26T11:11:33.755Z,38.37
2018-07-26T11:14:02.897Z,38.65
2018-07-26T11:16:31.997Z,38.67
2018-07-26T11:19:01.853Z,38.59
2018-07-26T11:21:31.199Z,38.38
2018-07-26T11:24:00.277Z,38.41
2018-07-26T11:26:29.004Z,38.44
2018-07-26T11:28:58.222Z,38.36
2018-07-26T11:31:27.007Z,38.44
2018-07-26T11:33:56.110Z,38.48
2018-07-26T11:36:25.424Z,38.74
2018-07-26T11:38:54.433Z,39.02
2018-07-26T11:41:23.260Z,38.95
2018-07-26T11:43:52.091Z,39.15
2018-07-26T11:46:20.850Z,39.13
2018-07-26T11:48:49.622Z,39.10
2018-07-26T11:51:18.702Z,39.14
2018-07-26T11:53:47.964Z,39.39
2018-07-26T11:56:17.319Z,39.57
2018-07-26T11:58:46.064Z,39.87
2018-07-26T12:01:14.808Z,40.06
2018-07-26T12:03:43.766Z,39.95
2018-07-26T12:06:12.866Z,39.88
2018-07-26T12:08:41.578Z,39.92
2018-07-26T12:11:10.681Z,39.93
2018-07-26T12:13:40.018Z,40.07
2018-07-26T12:16:08.746Z,40.19
2018-07-26T12:18:37.479Z,39.60
2018-07-26T12:21:06.546Z,39.83
2018-07-26T12:23:36.017Z,40.04
2018-07-26T12:26:05.378Z,39.85
2018-07-26T12:28:34.113Z,39.99
2018-07-26T12:31:03.502Z,40.17
2018-07-26T12:33:32.298Z,40.46
2018-07-26T12:36:01.563Z,40.65
2018-07-26T12:38:30.867Z,40.91
2018-07-26T12:41:00.519Z,40.58
2018-07-26T12:43:29.689Z,40.21
2018-07-26T12:45:58.440Z,39.63
2018-07-26T12:48:27.463Z,39.88
2018-07-26T12:50:56.755Z,39.68
2018-07-26T12:53:26.111Z,39.38
2018-07-26T12:55:55.999Z,39.75
2018-07-26T12:58:25.250Z,40.13
2018-07-26T13:00:54.766Z,40.23
2018-07-26T13:03:23.741Z,40.25
2018-07-26T13:05:52.705Z,40.42
2018-07-26T13:08:22.509Z,40.46
2018-07-26T13:10:51.582Z,40.32
2018-07-26T13:13:20.318Z,40.46
2018-07-26T13:15:49.997Z,40.41
2018-07-26T13:18:19.402Z,40.17
2018-07-26T13:20:48.121Z,40.23
2018-07-26T13:23:17.198Z,40.32
2018-07-26T13:25:45.952Z,40.63
2018-07-26T13:28:14.979Z,40.86
2018-07-26T13:30:44.328Z,40.98
2018-07-26T13:33:13.130Z,40.86
2018-07-26T13:35:42.279Z,40.40
2018-07-26T13:38:11.075Z,40.40
2018-07-26T13:40:40.128Z,40.29
2018-07-26T13:43:09.184Z,39.93
2018-07-26T13:45:38.382Z,39.80
2018-07-26T13:48:07.202Z,40.05
2018-07-26T13:50:35.936Z,40.45
2018-07-26T13:53:05.289Z,40.53
2018-07-26T13:55:34.158Z,40.55
2018-07-26T13:58:03.153Z,40.15
2018-07-26T14:00:33.172Z,39.62
2018-07-26T14:03:05.205Z,39.32
2018-07-26T14:05:35.186Z,39.31
2018-07-26T14:08:05.056Z,39.69
2018-07-26T14:10:35.115Z,40.08
2018-07-26T14:13:04.207Z,39.86
2018-07-26T14:15:33.303Z,39.63
2018-07-26T14:18:02.339Z,39.55
2018-07-26T14:20:32.333Z,39.77
2018-07-26T14:23:01.774Z,39.92
2018-07-26T14:25:31.752Z,40.13
2018-07-26T14:28:01.089Z,40.41
2018-07-26T14:30:30.846Z,40.33
2018-07-26T14:32:59.871Z,40.13
2018-07-26T14:35:33.188Z,40.18
2018-07-26T14:38:02.026Z,40.33
2018-07-26T14:40:31.387Z,40.43
2018-07-26T14:43:00.598Z,40.02
2018-07-26T14:45:30.834Z,39.78
2018-07-26T14:47:59.656Z,40.04
2018-07-26T14:50:28.738Z,40.43
2018-07-26T14:53:00.661Z,40.54
2018-07-26T14:55:29.396Z,40.50
2018-07-26T14:57:58.409Z,40.57
2018-07-26T15:00:27.269Z,40.64
2018-07-26T15:02:59.140Z,40.79
2018-07-26T15:05:29.676Z,40.93
2018-07-26T15:07:59.063Z,40.84
2018-07-26T15:10:31.065Z,40.70
2018-07-26T15:13:00.718Z,40.65
2018-07-26T15:15:30.519Z,40.49
2018-07-26T15:17:59.808Z,40.55
2018-07-26T15:20:30.078Z,40.58
2018-07-26T15:23:00.132Z,40.62
2018-07-26T15:25:29.274Z,40.47
2018-07-26T15:27:58.580Z,40.30
2018-07-26T15:30:27.345Z,40.28
2018-07-26T15:32:56.162Z,40.42
2018-07-26T15:35:25.749Z,40.65
2018-07-26T15:37:55.448Z,40.44
2018-07-26T15:40:24.545Z,40.51
2018-07-26T15:42:53.351Z,40.26
2018-07-26T15:45:22.208Z,39.72
2018-07-26T15:47:51.439Z,39.74
2018-07-26T15:50:20.460Z,39.42
2018-07-26T15:52:49.642Z,39.86
2018-07-26T15:55:18.414Z,39.97
2018-07-26T15:57:47.206Z,40.11
2018-07-26T16:00:16.206Z,40.24
2018-07-26T16:02:45.384Z,40.13
2018-07-26T16:05:14.162Z,39.87
2018-07-26T16:07:42.938Z,39.45
2018-07-26T16:10:12.650Z,39.14
2018-07-26T16:12:42.751Z,38.88
2018-07-26T16:15:13.939Z,38.83
2018-07-26T16:17:44.774Z,38.88
2018-07-26T16:20:15.252Z,38.95
2018-07-26T16:22:44.341Z,39.00
2018-07-26T16:25:13.368Z,38.94
2018-07-26T16:27:42.098Z,38.96
2018-07-26T16:30:12.476Z,38.94
2018-07-26T16:32:41.309Z,39.04
2018-07-26T16:35:10.296Z,39.13
2018-07-26T16:37:39.054Z,38.95
2018-07-26T16:40:08.084Z,38.72
2018-07-26T16:42:38.165Z,38.64
2018-07-26T16:45:08.179Z,38.61
2018-07-26T16:47:37.305Z,38.45
2018-07-26T16:50:07.982Z,38.35
2018-07-26T16:52:37.358Z,38.44
2018-07-26T16:55:06.985Z,38.51
2018-07-26T16:57:36.661Z,38.47
2018-07-26T17:00:07.535Z,38.50
2018-07-26T17:02:37.058Z,38.28
2018-07-26T17:05:07.359Z,37.89
2018-07-26T17:07:36.520Z,37.74
2018-07-26T17:10:06.812Z,37.68
2018-07-26T17:12:36.195Z,37.76
2018-07-26T17:15:06.210Z,37.73
2018-07-26T17:17:35.079Z,37.71
2018-07-26T17:20:04.894Z,37.64
2018-07-26T17:22:34.451Z,37.61
2018-07-26T17:25:04.576Z,37.55
2018-07-26T17:27:34.005Z,37.41
2018-07-26T17:30:03.181Z,37.23
2018-07-26T17:32:32.117Z,37.21
2018-07-26T17:35:00.765Z,37.16
2018-07-26T17:37:29.870Z,37.13
2018-07-26T17:39:59.208Z,37.07
2018-07-26T17:42:28.924Z,37.00
2018-07-26T17:44:58.073Z,36.90
2018-07-26T17:47:27.432Z,36.77
2018-07-26T17:49:56.198Z,36.65
2018-07-26T17:52:25.230Z,36.51
2018-07-26T17:54:54.231Z,36.41
2018-07-26T17:57:23.287Z,36.28
2018-07-26T17:59:52.015Z,36.15
2018-07-26T18:02:21.121Z,36.11
2018-07-26T18:04:49.958Z,36.02
2018-07-26T18:07:19.100Z,36.03
2018-07-26T18:09:48.745Z,36.04
2018-07-26T18:12:17.692Z,36.00
2018-07-26T18:14:46.735Z,35.91
2018-07-26T18:17:15.869Z,35.85
2018-07-26T18:19:44.992Z,35.75
2018-07-26T18:22:13.974Z,35.70
2018-07-26T18:24:42.773Z,35.59
2018-07-26T18:27:11.521Z,35.53
2018-07-26T18:29:41.139Z,35.44
2018-07-26T18:32:09.962Z,35.33
2018-07-26T18:34:39.037Z,35.28
2018-07-26T18:37:07.878Z,35.22
2018-07-26T18:39:36.619Z,35.17
2018-07-26T18:42:06.571Z,35.09
2018-07-26T18:44:35.306Z,35.01
2018-07-26T18:47:04.074Z,34.87
2018-07-26T18:49:33.080Z,34.74
2018-07-26T18:52:02.138Z,34.57
2018-07-26T18:54:30.880Z,34.43
2018-07-26T18:56:59.906Z,34.30
2018-07-26T18:59:28.689Z,34.24
2018-07-26T19:01:58.094Z,34.17
2018-07-26T19:04:27.182Z,34.13
2018-07-26T19:06:55.959Z,34.13
2018-07-26T19:09:24.717Z,34.07
2018-07-26T19:11:53.718Z,33.99
2018-07-26T19:14:22.715Z,33.87
2018-07-26T19:16:52.751Z,33.76
2018-07-26T19:19:21.537Z,33.66
2018-07-26T19:21:50.531Z,33.61
2018-07-26T19:24:19.600Z,33.53
2018-07-26T19:26:48.560Z,33.45
2018-07-26T19:29:17.455Z,33.38
2018-07-26T19:31:46.197Z,33.33
2018-07-26T19:34:14.953Z,33.23
2018-07-26T19:36:43.741Z,33.18
2018-07-26T19:39:13.682Z,33.09
2018-07-26T19:41:43.215Z,33.00
2018-07-26T19:44:12.580Z,32.92
2018-07-26T19:46:41.639Z,32.89
2018-07-26T19:49:10.492Z,32.80
2018-07-26T19:51:39.248Z,32.71
2018-07-26T19:54:08.295Z,32.62
2018-07-26T19:56:37.027Z,32.59
2018-07-26T19:59:05.740Z,32.53
2018-07-26T20:01:34.763Z,32.45
2018-07-26T20:04:03.843Z,32.29
2018-07-26T20:06:32.987Z,32.21
2018-07-26T20:09:01.979Z,32.14
2018-07-26T20:11:31.021Z,32.12
2018-07-26T20:14:00.130Z,32.03
2018-07-26T20:16:29.141Z,31.95
2018-07-26T20:18:58.482Z,31.89
2018-07-26T20:21:27.239Z,31.85
2018-07-26T20:23:56.780Z,31.78
2018-07-26T20:26:25.934Z,31.71
2018-07-26T20:28:54.994Z,31.66
2018-07-26T20:31:23.716Z,31.61
2018-07-26T20:33:53.299Z,31.55
2018-07-26T20:36:22.390Z,31.48
2018-07-26T20:38:51.454Z,31.41
2018-07-26T20:41:21.192Z,31.32
2018-07-26T20:43:49.985Z,31.23
2018-07-26T20:46:18.759Z,31.13
2018-07-26T20:48:48.518Z,31.03
2018-07-26T20:51:17.424Z,30.92
2018-07-26T20:53:46.226Z,30.86
2018-07-26T20:56:15.574Z,30.80
2018-07-26T20:58:44.817Z,30.67
2018-07-26T21:01:13.625Z,30.57
2018-07-26T21:03:42.759Z,30.45
2018-07-26T21:06:11.558Z,30.38
2018-07-26T21:08:40.670Z,30.29
2018-07-26T21:11:09.570Z,30.23
2018-07-26T21:13:38.330Z,30.16
2018-07-26T21:16:07.457Z,30.06
2018-07-26T21:18:36.791Z,29.96
2018-07-26T21:21:05.566Z,29.91
2018-07-26T21:23:34.371Z,29.86
2018-07-26T21:26:03.140Z,29.82
2018-07-26T21:28:32.463Z,29.74
2018-07-26T21:31:01.902Z,29.71
2018-07-26T21:33:30.984Z,29.67
2018-07-26T21:35:59.980Z,29.62
2018-07-26T21:38:28.733Z,29.57
2018-07-26T21:40:57.766Z,29.51
2018-07-26T21:43:26.612Z,29.43
2018-07-26T21:45:55.975Z,29.41
2018-07-26T21:48:24.724Z,29.35
2018-07-26T21:50:53.783Z,29.34
2018-07-26T21:53:22.511Z,29.28
2018-07-26T21:55:51.314Z,29.26
2018-07-26T21:58:20.111Z,29.22
2018-07-26T22:00:53.889Z,29.17
2018-07-26T22:03:22.598Z,29.14
2018-07-26T22:05:51.365Z,29.10
2018-07-26T22:08:20.558Z,29.08
2018-07-26T22:10:49.816Z,29.06
2018-07-26T22:13:19.259Z,29.03
2018-07-26T22:15:48.228Z,29.02
2018-07-26T22:18:16.963Z,29.01
2018-07-26T22:20:46.039Z,28.99
2018-07-26T22:23:14.809Z,28.97
2018-07-26T22:25:46.986Z,28.94
2018-07-26T22:28:15.935Z,28.90
2018-07-26T22:30:45.341Z,28.87
2018-07-26T22:33:14.645Z,28.84
2018-07-26T22:35:44.525Z,28.75
2018-07-26T22:38:13.784Z,28.62
2018-07-26T22:40:42.615Z,28.53
2018-07-26T22:43:11.715Z,28.42
2018-07-26T22:45:40.795Z,28.35
2018-07-26T22:48:09.799Z,28.24
2018-07-26T22:50:38.560Z,28.17
2018-07-26T22:53:07.330Z,28.14
2018-07-26T22:55:36.145Z,28.07
2018-07-26T22:58:04.906Z,28.00
2018-07-26T23:00:34.271Z,27.92
2018-07-26T23:03:03.015Z,27.91
2018-07-26T23:05:32.015Z,27.82
2018-07-26T23:08:00.783Z,27.82
2018-07-26T23:10:30.205Z,27.78
2018-07-26T23:12:59.010Z,27.69
2018-07-26T23:15:27.793Z,27.67
2018-07-26T23:17:56.779Z,27.63
2018-07-26T23:20:25.884Z,27.57
2018-07-26T23:22:56.077Z,27.50
2018-07-26T23:25:24.862Z,27.50
2018-07-26T23:27:53.649Z,27.46
2018-07-26T23:30:22.971Z,27.47
2018-07-26T23:32:51.914Z,27.43
2018-07-26T23:35:20.710Z,27.42
2018-07-26T23:37:49.748Z,27.35
2018-07-26T23:40:18.493Z,27.33
2018-07-26T23:42:47.532Z,27.28
2018-07-26T23:45:16.580Z,27.26
2018-07-26T23:47:45.293Z,27.28
2018-07-26T23:50:14.015Z,27.24
2018-07-26T23:52:43.425Z,27.20
2018-07-26T23:55:12.484Z,27.20
2018-07-26T23:57:41.204Z,27.18
